createdAt,value
2019-03-04T00:02:27.368Z,10.63
2019-03-04T00:04:57.688Z,10.62
2019-03-04T00:07:27.951Z,10.49
2019-03-04T00:09:58.229Z,10.58
2019-03-04T00:12:28.483Z,10.52
2019-03-04T00:14:58.673Z,10.59
2019-03-04T00:17:28.888Z,10.60
2019-03-04T00:19:59.098Z,10.62
2019-03-04T00:22:29.356Z,10.66
2019-03-04T00:24:59.555Z,10.63
2019-03-04T00:27:29.774Z,10.62
2019-03-04T00:29:59.966Z,10.66
2019-03-04T00:32:30.168Z,10.65
2019-03-04T00:35:00.480Z,10.66
2019-03-04T00:37:30.686Z,10.75
2019-03-04T00:40:00.968Z,10.69
2019-03-04T00:42:32.450Z,10.67
2019-03-04T00:45:02.672Z,10.58
2019-03-04T00:47:33.026Z,10.59
2019-03-04T00:50:03.261Z,10.57
2019-03-04T00:52:33.433Z,10.62
2019-03-04T00:55:03.676Z,10.47
2019-03-04T00:57:33.908Z,10.53
2019-03-04T01:00:05.020Z,10.46
2019-03-04T01:02:36.774Z,10.41
2019-03-04T01:05:07.304Z,10.45
2019-03-04T01:07:37.495Z,10.49
2019-03-04T01:10:08.020Z,10.47
2019-03-04T01:12:38.224Z,10.43
2019-03-04T01:15:11.013Z,10.43
2019-03-04T01:17:41.227Z,10.42
2019-03-04T01:20:12.797Z,10.42
2019-03-04T01:22:43.068Z,10.42
2019-03-04T01:25:17.634Z,10.46
2019-03-04T01:27:47.971Z,10.44
2019-03-04T01:30:33.593Z,10.44
2019-03-04T01:33:03.786Z,10.40
2019-03-04T01:35:34.203Z,10.46
2019-03-04T01:38:04.425Z,10.45
2019-03-04T01:40:34.574Z,10.44
2019-03-04T01:43:04.785Z,10.38
2019-03-04T01:45:34.968Z,10.39
2019-03-04T01:48:05.214Z,10.30
2019-03-04T01:50:35.596Z,10.37
2019-03-04T01:53:05.755Z,10.34
2019-03-04T01:55:35.962Z,10.35
2019-03-04T01:58:06.180Z,10.32
2019-03-04T02:00:36.360Z,10.30
2019-03-04T02:03:06.752Z,10.31
2019-03-04T02:05:36.942Z,10.30
2019-03-04T02:08:07.279Z,10.27
2019-03-04T02:10:37.502Z,10.26
2019-03-04T02:13:07.736Z,10.18
2019-03-04T02:15:37.965Z,10.17
2019-03-04T02:18:08.117Z,10.20
2019-03-04T02:20:38.473Z,10.15
2019-03-04T02:23:08.750Z,10.19
2019-03-04T02:26:15.071Z,10.21
2019-03-04T02:28:45.352Z,10.16
2019-03-04T02:31:15.637Z,10.05
2019-03-04T02:33:45.864Z,9.99
2019-03-04T02:36:16.051Z,10.01
2019-03-04T02:38:46.240Z,9.91
2019-03-04T02:41:16.417Z,10.19
2019-03-04T02:43:46.690Z,10.09
2019-03-04T02:46:16.886Z,10.02
2019-03-04T02:48:47.042Z,10.02
2019-03-04T02:51:17.227Z,10.11
2019-03-04T02:53:47.572Z,10.04
2019-03-04T02:56:19.308Z,10.20
2019-03-04T02:58:49.493Z,10.21
2019-03-04T03:01:19.791Z,10.18
2019-03-04T03:03:50.460Z,10.20
2019-03-04T03:06:20.685Z,10.25
2019-03-04T03:08:50.980Z,10.32
2019-03-04T03:11:21.249Z,10.34
2019-03-04T03:13:51.427Z,10.32
2019-03-04T03:16:21.655Z,10.25
2019-03-04T03:18:51.890Z,10.29
2019-03-04T03:21:22.152Z,10.24
2019-03-04T03:23:52.520Z,10.23
2019-03-04T03:26:22.734Z,10.25
2019-03-04T03:28:52.932Z,10.23
2019-03-04T03:31:23.144Z,10.19
2019-03-04T03:33:53.361Z,10.27
2019-03-04T03:36:23.558Z,10.26
2019-03-04T03:38:53.806Z,10.26
2019-03-04T03:41:23.994Z,10.20
2019-03-04T03:43:54.194Z,10.19
2019-03-04T03:46:24.470Z,10.09
2019-03-04T03:48:54.765Z,10.10
2019-03-04T03:51:25.007Z,10.16
2019-03-04T03:53:55.167Z,10.13
2019-03-04T03:56:25.344Z,10.14
2019-03-04T03:58:55.673Z,10.17
2019-03-04T04:01:25.882Z,10.14
2019-03-04T04:03:56.414Z,10.20
2019-03-04T04:06:26.614Z,10.15
2019-03-04T04:08:56.787Z,10.17
2019-03-04T04:11:27.024Z,10.12
2019-03-04T04:13:57.234Z,10.21
2019-03-04T04:16:27.448Z,10.20
2019-03-04T04:18:57.705Z,10.21
2019-03-04T04:21:27.955Z,10.25
2019-03-04T04:23:58.143Z,10.29
2019-03-04T04:26:28.361Z,10.27
2019-03-04T04:29:08.402Z,10.30
2019-03-04T04:31:38.674Z,10.27
2019-03-04T04:34:08.894Z,10.31
2019-03-04T04:36:39.119Z,10.32
2019-03-04T04:39:09.457Z,10.31
2019-03-04T04:41:39.700Z,10.30
2019-03-04T04:44:10.068Z,10.28
2019-03-04T04:46:54.480Z,10.24
2019-03-04T04:49:26.442Z,9.93
2019-03-04T04:51:56.655Z,9.80
2019-03-04T04:54:26.882Z,9.70
2019-03-04T04:56:57.060Z,9.63
2019-03-04T04:59:27.238Z,9.60
2019-03-04T05:01:57.426Z,9.61
2019-03-04T05:04:28.024Z,9.23
2019-03-04T05:06:58.268Z,9.09
2019-03-04T05:09:28.433Z,9.07
2019-03-04T05:11:59.794Z,9.24
2019-03-04T05:14:30.116Z,9.80
2019-03-04T05:17:00.570Z,10.06
2019-03-04T05:19:30.778Z,10.13
2019-03-04T05:22:00.965Z,10.32
2019-03-04T05:24:31.179Z,10.47
2019-03-04T05:27:01.798Z,10.55
2019-03-04T05:29:32.004Z,10.60
2019-03-04T05:32:02.208Z,10.73
2019-03-04T05:34:32.567Z,10.81
2019-03-04T05:37:02.818Z,10.84
2019-03-04T05:39:33.080Z,10.94
2019-03-04T05:42:03.308Z,10.94
2019-03-04T05:44:33.496Z,11.07
2019-03-04T05:47:03.707Z,11.08
2019-03-04T05:49:34.047Z,11.11
2019-03-04T05:52:05.394Z,11.18
2019-03-04T05:54:36.802Z,11.20
2019-03-04T05:57:07.130Z,11.25
2019-03-04T05:59:37.447Z,11.26
2019-03-04T06:02:09.991Z,11.29
2019-03-04T06:04:42.378Z,11.37
2019-03-04T06:07:25.275Z,11.34
2019-03-04T06:09:55.562Z,11.40
2019-03-04T06:12:25.753Z,11.42
2019-03-04T06:14:56.176Z,11.49
2019-03-04T06:17:26.361Z,11.45
2019-03-04T06:19:56.575Z,11.46
2019-03-04T06:22:26.783Z,11.51
2019-03-04T06:24:57.084Z,11.51
2019-03-04T06:27:27.562Z,11.49
2019-03-04T06:29:57.805Z,11.50
2019-03-04T06:32:28.012Z,11.50
2019-03-04T06:34:58.212Z,11.51
2019-03-04T06:37:30.642Z,11.50
2019-03-04T06:40:03.738Z,11.51
2019-03-04T06:42:34.090Z,11.51
2019-03-04T06:45:05.328Z,11.54
2019-03-04T06:47:35.693Z,11.60
2019-03-04T06:50:06.248Z,11.61
2019-03-04T06:52:36.479Z,11.59
2019-03-04T06:55:31.562Z,11.57
2019-03-04T06:58:01.791Z,11.60
2019-03-04T07:00:40.479Z,11.60
2019-03-04T07:03:16.023Z,11.71
2019-03-04T07:05:53.291Z,11.74
2019-03-04T07:09:14.541Z,11.78
2019-03-04T07:11:52.769Z,11.71
2019-03-04T07:14:22.997Z,11.79
2019-03-04T07:16:54.205Z,11.81
2019-03-04T07:19:32.109Z,11.88
2019-03-04T07:22:02.681Z,11.96
2019-03-04T07:24:34.104Z,12.00
2019-03-04T07:27:04.551Z,12.37
2019-03-04T07:29:36.582Z,12.40
2019-03-04T07:32:07.706Z,12.37
2019-03-04T07:34:38.579Z,12.54
2019-03-04T07:37:08.975Z,12.48
2019-03-04T07:39:41.873Z,12.45
2019-03-04T07:42:13.099Z,12.39
2019-03-04T07:44:43.346Z,12.46
2019-03-04T07:47:14.687Z,12.48
2019-03-04T07:49:49.432Z,12.42
2019-03-04T07:52:19.700Z,12.41
2019-03-04T07:54:49.961Z,12.42
2019-03-04T07:57:38.581Z,12.44
2019-03-04T08:00:09.767Z,12.42
2019-03-04T08:02:40.135Z,12.34
2019-03-04T08:05:10.377Z,12.30
2019-03-04T08:07:46.598Z,12.30
2019-03-04T08:11:14.246Z,12.22
2019-03-04T08:14:02.491Z,12.21
2019-03-04T08:16:36.283Z,12.20
2019-03-04T08:19:07.634Z,12.32
2019-03-04T08:21:37.931Z,12.41
2019-03-04T08:24:08.195Z,12.44
2019-03-04T08:26:38.497Z,12.54
2019-03-04T08:29:09.283Z,12.61
2019-03-04T08:31:39.533Z,12.70
2019-03-04T08:34:09.788Z,12.68
2019-03-04T08:36:44.342Z,12.64
2019-03-04T08:39:15.202Z,12.46
2019-03-04T08:41:45.421Z,12.46
2019-03-04T08:44:17.993Z,12.43
2019-03-04T08:46:48.231Z,12.49
2019-03-04T08:49:18.543Z,12.49
2019-03-04T08:51:48.732Z,12.46
2019-03-04T08:54:18.952Z,12.40
2019-03-04T08:56:49.300Z,12.22
2019-03-04T08:59:21.117Z,12.14
2019-03-04T09:01:51.324Z,12.08
2019-03-04T09:04:21.538Z,12.12
2019-03-04T09:06:51.777Z,12.15
2019-03-04T09:09:22.333Z,12.15
2019-03-04T09:11:52.756Z,12.08
2019-03-04T09:14:39.314Z,12.09
2019-03-04T09:17:11.283Z,12.03
2019-03-04T09:19:41.649Z,12.01
2019-03-04T09:22:11.877Z,11.98
2019-03-04T09:24:42.131Z,12.04
2019-03-04T09:27:13.325Z,12.07
2019-03-04T09:29:46.593Z,12.08
2019-03-04T09:32:16.505Z,11.97
2019-03-04T09:34:46.799Z,11.93
2019-03-04T09:37:17.026Z,11.92
2019-03-04T09:39:54.122Z,11.68
2019-03-04T09:42:27.484Z,11.78
2019-03-04T09:45:01.559Z,11.85
2019-03-04T09:47:31.986Z,11.86
2019-03-04T09:53:38.857Z,11.63
2019-03-04T09:56:02.180Z,11.79
2019-03-04T09:58:32.468Z,11.76
2019-03-04T10:01:27.376Z,11.75
2019-03-04T10:04:22.382Z,11.68
2019-03-04T10:07:39.505Z,11.80
2019-03-04T10:10:54.482Z,12.21
2019-03-04T10:14:19.555Z,12.24
2019-03-04T10:17:16.625Z,12.58
2019-03-04T10:20:25.322Z,12.50
2019-03-04T10:23:37.100Z,12.83
2019-03-04T10:26:36.051Z,12.65
2019-03-04T10:29:42.910Z,12.77
2019-03-04T10:32:52.891Z,12.82
2019-03-04T10:35:48.008Z,12.78
2019-03-04T10:38:55.325Z,12.63
2019-03-04T10:41:45.026Z,12.63
2019-03-04T10:45:05.668Z,12.66
2019-03-04T10:47:38.493Z,12.70
2019-03-04T10:50:10.266Z,12.84
2019-03-04T10:52:40.575Z,12.91
2019-03-04T10:55:11.796Z,12.89
2019-03-04T10:57:42.053Z,13.11
2019-03-04T11:00:17.601Z,13.19
2019-03-04T11:02:47.805Z,13.31
2019-03-04T11:05:18.086Z,13.42
2019-03-04T11:07:48.403Z,13.76
2019-03-04T11:10:18.967Z,14.05
2019-03-04T11:12:49.153Z,14.24
2019-03-04T11:15:21.641Z,14.18
2019-03-04T11:17:54.802Z,14.19
2019-03-04T11:20:26.194Z,14.22
2019-03-04T11:22:56.396Z,14.28
2019-03-04T11:25:26.711Z,14.26
2019-03-04T11:27:57.060Z,14.26
2019-03-04T11:30:29.918Z,14.34
2019-03-04T11:33:00.360Z,14.42
2019-03-04T11:35:30.622Z,14.43
2019-03-04T11:38:01.921Z,14.39
2019-03-04T11:40:37.766Z,14.51
2019-03-04T11:43:08.122Z,14.70
2019-03-04T11:45:38.310Z,14.91
2019-03-04T11:48:09.630Z,15.24
2019-03-04T11:50:39.913Z,15.40
2019-03-04T11:53:11.874Z,15.73
2019-03-04T11:55:44.618Z,16.02
2019-03-04T11:58:14.993Z,15.78
2019-03-04T12:00:53.461Z,15.60
2019-03-04T12:03:25.116Z,15.68
2019-03-04T12:05:55.409Z,15.66
2019-03-04T12:08:26.298Z,15.68
2019-03-04T12:10:56.972Z,15.61
2019-03-04T12:13:27.348Z,15.64
2019-03-04T12:15:58.716Z,15.73
2019-03-04T12:18:29.018Z,16.01
2019-03-04T12:20:59.336Z,15.87
2019-03-04T12:23:31.411Z,15.84
2019-03-04T12:26:01.861Z,15.72
2019-03-04T12:28:32.322Z,15.52
2019-03-04T12:31:05.267Z,15.88
2019-03-04T12:33:35.598Z,16.00
2019-03-04T12:36:12.778Z,15.87
2019-03-04T12:38:43.796Z,15.75
2019-03-04T12:41:14.119Z,15.50
2019-03-04T12:43:44.477Z,15.32
2019-03-04T12:46:14.762Z,14.94
2019-03-04T12:48:45.077Z,14.96
2019-03-04T12:51:22.719Z,14.90
2019-03-04T12:53:47.565Z,14.83
2019-03-04T12:56:17.891Z,14.77
2019-03-04T12:58:48.565Z,14.68
2019-03-04T13:01:18.842Z,14.55
2019-03-04T13:03:49.143Z,14.48
2019-03-04T13:06:19.429Z,14.47
2019-03-04T13:08:49.609Z,14.51
2019-03-04T13:11:20.217Z,14.70
2019-03-04T13:13:50.686Z,14.72
2019-03-04T13:16:21.036Z,14.69
2019-03-04T13:18:52.355Z,14.77
2019-03-04T13:21:22.891Z,14.76
2019-03-04T13:23:53.863Z,14.43
2019-03-04T13:26:24.736Z,14.32
2019-03-04T13:28:55.264Z,14.27
2019-03-04T13:31:25.550Z,14.39
2019-03-04T13:33:55.731Z,14.28
2019-03-04T13:36:26.813Z,14.19
2019-03-04T13:38:57.171Z,14.18
2019-03-04T13:41:27.717Z,14.14
2019-03-04T13:43:59.269Z,13.94
2019-03-04T13:46:29.620Z,13.77
2019-03-04T13:48:59.929Z,13.65
2019-03-04T13:51:30.732Z,13.58
2019-03-04T13:54:02.408Z,13.65
2019-03-04T13:56:32.872Z,13.59
2019-03-04T13:59:03.177Z,13.34
2019-03-04T14:01:34.832Z,12.94
2019-03-04T14:04:07.714Z,12.87
2019-03-04T14:06:39.244Z,12.83
2019-03-04T14:09:30.228Z,12.67
2019-03-04T14:12:02.782Z,12.70
2019-03-04T14:14:35.205Z,12.71
2019-03-04T14:17:10.734Z,12.81
2019-03-04T14:19:48.914Z,12.80
2019-03-04T14:22:21.452Z,12.73
2019-03-04T14:25:02.643Z,12.70
2019-03-04T14:27:37.358Z,12.74
2019-03-04T14:30:14.070Z,12.71
2019-03-04T14:32:55.011Z,12.63
2019-03-04T14:35:26.494Z,12.74
2019-03-04T14:37:58.188Z,12.86
2019-03-04T14:40:42.921Z,12.75
2019-03-04T14:43:16.336Z,12.79
2019-03-04T14:46:35.987Z,12.80
2019-03-04T14:49:07.834Z,12.80
2019-03-04T14:51:53.678Z,12.74
2019-03-04T14:54:28.955Z,12.60
2019-03-04T14:57:00.560Z,12.82
2019-03-04T14:59:34.054Z,12.75
2019-03-04T15:02:07.242Z,12.96
2019-03-04T15:04:40.835Z,12.84
2019-03-04T15:07:31.492Z,12.85
2019-03-04T15:10:05.322Z,12.82
2019-03-04T15:12:40.335Z,12.83
2019-03-04T15:15:12.181Z,12.86
2019-03-04T15:17:43.775Z,12.80
2019-03-04T15:20:18.724Z,12.85
2019-03-04T15:22:50.207Z,12.81
2019-03-04T15:25:27.648Z,12.78
2019-03-04T15:28:11.453Z,12.77
2019-03-04T15:30:43.362Z,12.82
2019-03-04T15:33:18.201Z,12.82
2019-03-04T15:35:50.613Z,12.70
2019-03-04T15:38:22.915Z,12.70
2019-03-04T15:40:56.507Z,12.70
2019-03-04T15:43:27.888Z,12.66
2019-03-04T15:45:59.989Z,12.67
2019-03-04T15:48:30.318Z,12.68
2019-03-04T15:51:00.603Z,12.63
2019-03-04T15:53:49.907Z,12.62
2019-03-04T15:56:20.236Z,12.57
2019-03-04T15:58:51.954Z,12.50
2019-03-04T16:01:23.604Z,12.42
2019-03-04T16:03:54.366Z,12.50
2019-03-04T16:06:25.312Z,12.42
2019-03-04T16:08:55.614Z,12.42
2019-03-04T16:11:25.855Z,12.43
2019-03-04T16:13:56.404Z,12.38
2019-03-04T16:16:27.788Z,12.41
2019-03-04T16:18:58.128Z,12.40
2019-03-04T16:21:30.992Z,12.43
2019-03-04T16:24:01.369Z,12.28
2019-03-04T16:26:31.598Z,12.27
2019-03-04T16:29:01.817Z,12.26
2019-03-04T16:31:32.130Z,12.18
2019-03-04T16:34:02.424Z,12.16
2019-03-04T16:36:36.090Z,12.14
2019-03-04T16:39:27.232Z,12.19
2019-03-04T16:41:57.574Z,12.16
2019-03-04T16:44:27.801Z,12.09
2019-03-04T16:46:58.819Z,12.10
2019-03-04T16:49:30.191Z,12.06
2019-03-04T16:52:00.750Z,12.09
2019-03-04T16:54:32.375Z,12.04
2019-03-04T16:57:07.439Z,12.08
2019-03-04T16:59:37.627Z,12.05
2019-03-04T17:02:07.984Z,12.04
2019-03-04T17:04:39.317Z,11.72
2019-03-04T17:07:09.659Z,10.66
2019-03-04T17:09:51.965Z,10.39
2019-03-04T17:12:30.230Z,10.28
2019-03-04T17:15:03.214Z,10.21
2019-03-04T17:17:37.658Z,10.36
2019-03-04T17:20:10.134Z,10.37
2019-03-04T17:22:42.856Z,10.37
2019-03-04T17:25:16.940Z,10.06
2019-03-04T17:27:48.998Z,10.19
2019-03-04T17:30:19.248Z,10.34
2019-03-04T17:32:49.619Z,10.08
2019-03-04T17:35:19.883Z,10.05
2019-03-04T17:37:51.313Z,10.11
2019-03-04T17:40:21.832Z,9.99
2019-03-04T17:42:52.089Z,9.93
2019-03-04T17:45:24.194Z,9.95
2019-03-04T17:47:54.347Z,10.12
2019-03-04T17:50:32.965Z,10.12
2019-03-04T17:53:04.658Z,10.06
2019-03-04T17:55:34.875Z,10.04
2019-03-04T17:58:05.473Z,9.90
2019-03-04T18:00:37.391Z,9.85
2019-03-04T18:03:07.934Z,9.87
2019-03-04T18:05:38.106Z,9.92
2019-03-04T18:08:08.474Z,9.85
2019-03-04T18:10:38.749Z,9.89
2019-03-04T18:13:11.358Z,9.89
2019-03-04T18:15:41.988Z,9.78
2019-03-04T18:18:13.733Z,9.73
2019-03-04T18:20:45.253Z,9.10
2019-03-04T18:23:15.535Z,6.99
2019-03-04T18:25:55.960Z,6.92
2019-03-04T18:28:57.851Z,6.74
2019-03-04T18:32:05.451Z,6.71
2019-03-04T18:35:23.304Z,6.67
2019-03-04T18:38:38.045Z,6.65
2019-03-04T18:41:20.600Z,6.45
2019-03-04T18:44:11.116Z,6.53
2019-03-04T18:47:24.037Z,6.37
2019-03-04T18:49:56.483Z,6.20
2019-03-04T18:52:26.750Z,6.12
2019-03-04T18:54:57.061Z,6.28
2019-03-04T18:57:27.918Z,6.24
2019-03-04T18:59:59.783Z,6.28
2019-03-04T19:02:29.996Z,6.31
2019-03-04T19:05:01.630Z,6.24
2019-03-04T19:07:31.949Z,6.38
2019-03-04T19:10:02.244Z,6.16
2019-03-04T19:12:35.733Z,6.08
2019-03-04T19:15:07.204Z,6.03
2019-03-04T19:17:43.516Z,6.34
2019-03-04T19:20:20.899Z,6.31
2019-03-04T19:22:52.007Z,6.07
2019-03-04T19:25:22.350Z,6.10
2019-03-04T19:27:52.732Z,6.01
2019-03-04T19:30:23.037Z,6.17
2019-03-04T19:32:53.307Z,6.06
2019-03-04T19:35:25.905Z,6.25
2019-03-04T19:37:56.189Z,5.94
2019-03-04T19:40:26.502Z,6.01
2019-03-04T19:42:56.709Z,5.89
2019-03-04T19:45:27.065Z,5.87
2019-03-04T19:47:57.387Z,5.88
2019-03-04T19:50:27.719Z,5.78
2019-03-04T19:52:58.124Z,5.76
2019-03-04T19:55:28.498Z,5.73
2019-03-04T19:57:58.678Z,5.63
2019-03-04T20:00:32.643Z,5.51
2019-03-04T20:03:03.040Z,5.80
2019-03-04T20:05:34.036Z,5.67
2019-03-04T20:08:04.487Z,5.65
2019-03-04T20:10:34.861Z,5.56
2019-03-04T20:13:05.303Z,5.58
2019-03-04T20:15:35.618Z,5.56
2019-03-04T20:18:06.191Z,5.61
2019-03-04T20:20:36.586Z,5.47
2019-03-04T20:23:07.380Z,5.60
2019-03-04T20:25:37.660Z,5.60
2019-03-04T20:28:08.110Z,5.57
2019-03-04T20:30:40.286Z,5.73
2019-03-04T20:33:12.268Z,5.69
2019-03-04T20:35:42.602Z,5.66
2019-03-04T20:38:14.074Z,5.90
2019-03-04T20:40:44.327Z,5.71
2019-03-04T20:43:14.600Z,5.67
2019-03-04T20:45:45.174Z,5.78
2019-03-04T20:48:16.507Z,5.57
2019-03-04T20:50:47.160Z,5.76
2019-03-04T20:53:17.373Z,5.66
2019-03-04T20:55:49.086Z,5.61
2019-03-04T20:58:20.131Z,5.60
2019-03-04T21:00:50.666Z,5.53
2019-03-04T21:03:21.295Z,5.54
2019-03-04T21:05:53.263Z,5.62
2019-03-04T21:08:23.525Z,5.63
2019-03-04T21:10:53.906Z,5.68
2019-03-04T21:13:35.091Z,5.50
2019-03-04T21:15:57.459Z,5.55
2019-03-04T21:18:28.241Z,5.57
2019-03-04T21:20:58.873Z,5.54
2019-03-04T21:23:29.218Z,5.50
2019-03-04T21:26:15.671Z,5.53
2019-03-04T21:30:03.335Z,5.51
2019-03-04T21:32:52.439Z,5.47
2019-03-04T21:35:52.438Z,5.54
2019-03-04T21:38:26.815Z,5.47
2019-03-04T21:41:26.624Z,5.47
2019-03-04T21:45:02.196Z,5.64
2019-03-04T21:47:44.220Z,5.42
2019-03-04T21:50:17.415Z,5.47
2019-03-04T21:53:02.105Z,5.42
2019-03-04T21:55:49.722Z,5.40
2019-03-04T21:58:19.903Z,5.39
2019-03-04T22:00:56.479Z,5.51
2019-03-04T22:03:32.870Z,5.50
2019-03-04T22:06:03.913Z,5.37
2019-03-04T22:08:34.281Z,5.53
2019-03-04T22:11:10.286Z,5.37
2019-03-04T22:13:41.148Z,5.43
2019-03-04T22:16:17.474Z,5.47
2019-03-04T22:18:50.251Z,5.37
2019-03-04T22:21:22.205Z,5.42
2019-03-04T22:23:52.520Z,5.32
2019-03-04T22:26:23.207Z,5.31
2019-03-04T22:28:53.659Z,5.38
2019-03-04T22:31:24.561Z,5.28
2019-03-04T22:33:54.824Z,5.29
2019-03-04T22:36:25.992Z,5.43
2019-03-04T22:39:00.181Z,5.34
2019-03-04T22:41:30.822Z,5.25
2019-03-04T22:44:01.103Z,5.25
2019-03-04T22:46:31.341Z,5.27
2019-03-04T22:49:01.609Z,5.29
2019-03-04T22:51:31.899Z,5.27
2019-03-04T22:54:02.169Z,5.28
2019-03-04T22:56:32.737Z,5.29
2019-03-04T22:59:03.222Z,5.30
2019-03-04T23:01:41.473Z,5.38
2019-03-04T23:04:44.667Z,5.33
2019-03-04T23:07:44.303Z,5.41
2019-03-04T23:10:39.665Z,5.29
2019-03-04T23:13:39.361Z,5.32
2019-03-04T23:16:12.304Z,5.31
2019-03-04T23:18:42.560Z,5.33
2019-03-04T23:21:13.146Z,5.35
2019-03-04T23:23:43.391Z,5.44
2019-03-04T23:26:13.611Z,5.41
2019-03-04T23:28:43.889Z,5.52
2019-03-04T23:31:15.182Z,5.47
2019-03-04T23:33:45.510Z,5.43
2019-03-04T23:36:15.793Z,5.23
2019-03-04T23:38:46.094Z,5.40
2019-03-04T23:41:18.724Z,5.35
2019-03-04T23:43:51.619Z,5.35
2019-03-04T23:46:21.964Z,5.40
2019-03-04T23:48:52.235Z,5.25
2019-03-04T23:51:22.503Z,5.33
2019-03-04T23:53:52.899Z,5.26
2019-03-04T23:56:23.081Z,5.39
2019-03-04T23:58:53.289Z,5.25
